sensor_id;sensor_type;location;lat;lon;timestamp;P1;durP1;ratioP1;P2;durP2;ratioP2
39410;SDS011;26579;43.238;23.124;2023-02-28T00:02:16;22.40;;;12.60;;
39410;SDS011;26579;43.238;23.124;2023-02-28T00:04:42;23.20;;;11.73;;
39410;SDS011;26579;43.238;23.124;2023-02-28T00:07:07;24.05;;;13.13;;
39410;SDS011;26579;43.238;23.124;2023-02-28T00:09:33;22.75;;;12.65;;
39410;SDS011;26579;43.238;23.124;2023-02-28T00:11:59;20.40;;;11.98;;
39410;SDS011;26579;43.238;23.124;2023-02-28T00:14:24;21.42;;;11.73;;
39410;SDS011;26579;43.238;23.124;2023-02-28T00:16:50;22.10;;;11.18;;
39410;SDS011;26579;43.238;23.124;2023-02-28T00:19:15;19.90;;;10.82;;
39410;SDS011;26579;43.238;23.124;2023-02-28T00:21:41;20.67;;;11.05;;
39410;SDS011;26579;43.238;23.124;2023-02-28T00:24:07;21.02;;;11.90;;
39410;SDS011;26579;43.238;23.124;2023-02-28T00:26:32;22.10;;;11.43;;
39410;SDS011;26579;43.238;23.124;2023-02-28T00:28:59;20.02;;;11.80;;
39410;SDS011;26579;43.238;23.124;2023-02-28T00:31:25;22.40;;;11.23;;
39410;SDS011;26579;43.238;23.124;2023-02-28T00:33:51;22.17;;;11.73;;
39410;SDS011;26579;43.238;23.124;2023-02-28T00:36:17;24.10;;;12.73;;
39410;SDS011;26579;43.238;23.124;2023-02-28T00:38:42;21.50;;;11.95;;
39410;SDS011;26579;43.238;23.124;2023-02-28T00:41:08;23.65;;;12.98;;
39410;SDS011;26579;43.238;23.124;2023-02-28T00:43:35;22.60;;;12.10;;
39410;SDS011;26579;43.238;23.124;2023-02-28T00:46:02;25.88;;;14.07;;
39410;SDS011;26579;43.238;23.124;2023-02-28T00:48:29;53.78;;;28.73;;
39410;SDS011;26579;43.238;23.124;2023-02-28T00:50:55;27.92;;;14.43;;
39410;SDS011;26579;43.238;23.124;2023-02-28T00:53:20;25.48;;;13.98;;
39410;SDS011;26579;43.238;23.124;2023-02-28T00:55:46;24.95;;;13.98;;
39410;SDS011;26579;43.238;23.124;2023-02-28T00:58:12;25.25;;;13.65;;
39410;SDS011;26579;43.238;23.124;2023-02-28T01:00:38;25.98;;;13.70;;
39410;SDS011;26579;43.238;23.124;2023-02-28T01:03:03;20.63;;;11.40;;
39410;SDS011;26579;43.238;23.124;2023-02-28T01:05:29;22.50;;;11.35;;
39410;SDS011;26579;43.238;23.124;2023-02-28T01:07:55;26.75;;;13.00;;
39410;SDS011;26579;43.238;23.124;2023-02-28T01:10:22;28.52;;;15.00;;
39410;SDS011;26579;43.238;23.124;2023-02-28T01:12:48;30.15;;;16.63;;
39410;SDS011;26579;43.238;23.124;2023-02-28T01:15:14;37.83;;;20.05;;
39410;SDS011;26579;43.238;23.124;2023-02-28T01:17:40;36.03;;;19.33;;
39410;SDS011;26579;43.238;23.124;2023-02-28T01:20:06;36.17;;;17.98;;
39410;SDS011;26579;43.238;23.124;2023-02-28T01:22:33;39.30;;;21.50;;
39410;SDS011;26579;43.238;23.124;2023-02-28T01:25:00;40.60;;;21.13;;
39410;SDS011;26579;43.238;23.124;2023-02-28T01:27:25;38.97;;;19.40;;
39410;SDS011;26579;43.238;23.124;2023-02-28T01:29:51;33.67;;;17.73;;
39410;SDS011;26579;43.238;23.124;2023-02-28T01:32:17;32.05;;;16.55;;
39410;SDS011;26579;43.238;23.124;2023-02-28T01:34:42;35.08;;;17.13;;
39410;SDS011;26579;43.238;23.124;2023-02-28T01:37:08;34.05;;;16.48;;
39410;SDS011;26579;43.238;23.124;2023-02-28T01:39:34;33.85;;;17.58;;
39410;SDS011;26579;43.238;23.124;2023-02-28T01:41:59;27.92;;;14.55;;
39410;SDS011;26579;43.238;23.124;2023-02-28T01:47:32;30.50;;;15.10;;
39410;SDS011;26579;43.238;23.124;2023-02-28T01:50:04;31.17;;;15.65;;
39410;SDS011;26579;43.238;23.124;2023-02-28T01:52:32;35.50;;;17.13;;
39410;SDS011;26579;43.238;23.124;2023-02-28T01:54:59;36.35;;;17.05;;
39410;SDS011;26579;43.238;23.124;2023-02-28T01:57:30;35.63;;;16.48;;
39410;SDS011;26579;43.238;23.124;2023-02-28T02:00:00;33.10;;;15.95;;
39410;SDS011;26579;43.238;23.124;2023-02-28T02:02:38;31.70;;;15.27;;
39410;SDS011;26579;43.238;23.124;2023-02-28T02:05:15;32.92;;;16.27;;
39410;SDS011;26579;43.238;23.124;2023-02-28T02:07:45;35.40;;;16.65;;
39410;SDS011;26579;43.238;23.124;2023-02-28T02:10:18;39.17;;;18.98;;
39410;SDS011;26579;43.238;23.124;2023-02-28T02:12:56;34.67;;;16.95;;
39410;SDS011;26579;43.238;23.124;2023-02-28T02:19:14;43.30;;;20.15;;
39410;SDS011;26579;43.238;23.124;2023-02-28T02:33:18;37.25;;;18.80;;
39410;SDS011;26579;43.238;23.124;2023-02-28T02:38:42;36.45;;;17.73;;
39410;SDS011;26579;43.238;23.124;2023-02-28T02:43:53;34.70;;;15.82;;
39410;SDS011;26579;43.238;23.124;2023-02-28T02:48:55;39.38;;;18.55;;
39410;SDS011;26579;43.238;23.124;2023-02-28T02:51:24;33.67;;;16.42;;
39410;SDS011;26579;43.238;23.124;2023-02-28T02:53:54;38.05;;;17.88;;
39410;SDS011;26579;43.238;23.124;2023-02-28T02:56:26;40.33;;;18.25;;
39410;SDS011;26579;43.238;23.124;2023-02-28T02:58:56;37.95;;;17.23;;
39410;SDS011;26579;43.238;23.124;2023-02-28T03:01:27;33.28;;;16.17;;
39410;SDS011;26579;43.238;23.124;2023-02-28T03:03:56;34.28;;;16.48;;
39410;SDS011;26579;43.238;23.124;2023-02-28T03:06:24;41.00;;;18.00;;
39410;SDS011;26579;43.238;23.124;2023-02-28T03:08:51;36.28;;;16.02;;
39410;SDS011;26579;43.238;23.124;2023-02-28T03:11:17;31.40;;;16.10;;
39410;SDS011;26579;43.238;23.124;2023-02-28T03:19:03;34.28;;;15.35;;
39410;SDS011;26579;43.238;23.124;2023-02-28T03:24:27;35.33;;;15.95;;
39410;SDS011;26579;43.238;23.124;2023-02-28T03:26:57;34.50;;;16.15;;
39410;SDS011;26579;43.238;23.124;2023-02-28T03:31:59;33.47;;;15.80;;
39410;SDS011;26579;43.238;23.124;2023-02-28T03:34:38;29.60;;;15.00;;
39410;SDS011;26579;43.238;23.124;2023-02-28T03:37:13;30.58;;;14.75;;
39410;SDS011;26579;43.238;23.124;2023-02-28T03:39:49;27.38;;;13.93;;
39410;SDS011;26579;43.238;23.124;2023-02-28T03:42:23;32.47;;;15.45;;
39410;SDS011;26579;43.238;23.124;2023-02-28T03:44:56;30.38;;;13.70;;
39410;SDS011;26579;43.238;23.124;2023-02-28T03:47:27;32.20;;;15.07;;
39410;SDS011;26579;43.238;23.124;2023-02-28T03:52:33;31.17;;;14.55;;
39410;SDS011;26579;43.238;23.124;2023-02-28T03:55:05;29.10;;;14.52;;
39410;SDS011;26579;43.238;23.124;2023-02-28T03:57:53;27.33;;;14.23;;
39410;SDS011;26579;43.238;23.124;2023-02-28T04:00:30;24.58;;;12.10;;
39410;SDS011;26579;43.238;23.124;2023-02-28T04:03:00;22.05;;;11.10;;
39410;SDS011;26579;43.238;23.124;2023-02-28T04:05:25;20.63;;;10.77;;
39410;SDS011;26579;43.238;23.124;2023-02-28T04:07:52;22.15;;;11.82;;
39410;SDS011;26579;43.238;23.124;2023-02-28T04:10:18;23.63;;;12.73;;
39410;SDS011;26579;43.238;23.124;2023-02-28T04:12:44;22.70;;;11.63;;
39410;SDS011;26579;43.238;23.124;2023-02-28T04:15:09;24.25;;;11.35;;
39410;SDS011;26579;43.238;23.124;2023-02-28T04:17:35;22.42;;;11.05;;
39410;SDS011;26579;43.238;23.124;2023-02-28T04:20:01;24.80;;;12.90;;
39410;SDS011;26579;43.238;23.124;2023-02-28T04:22:26;19.50;;;11.38;;
39410;SDS011;26579;43.238;23.124;2023-02-28T04:24:52;19.50;;;10.57;;
39410;SDS011;26579;43.238;23.124;2023-02-28T04:27:18;19.33;;;10.18;;
39410;SDS011;26579;43.238;23.124;2023-02-28T04:29:44;21.10;;;10.77;;
39410;SDS011;26579;43.238;23.124;2023-02-28T04:32:10;19.55;;;11.15;;
39410;SDS011;26579;43.238;23.124;2023-02-28T04:34:36;22.85;;;10.20;;
39410;SDS011;26579;43.238;23.124;2023-02-28T04:37:02;19.67;;;10.80;;
39410;SDS011;26579;43.238;23.124;2023-02-28T04:39:28;23.77;;;12.70;;
39410;SDS011;26579;43.238;23.124;2023-02-28T04:41:54;20.75;;;11.27;;
39410;SDS011;26579;43.238;23.124;2023-02-28T04:44:21;22.67;;;11.93;;
39410;SDS011;26579;43.238;23.124;2023-02-28T04:46:48;24.77;;;12.02;;
39410;SDS011;26579;43.238;23.124;2023-02-28T04:49:14;21.17;;;11.73;;
39410;SDS011;26579;43.238;23.124;2023-02-28T04:51:40;23.08;;;11.82;;
39410;SDS011;26579;43.238;23.124;2023-02-28T04:54:07;25.38;;;12.35;;
39410;SDS011;26579;43.238;23.124;2023-02-28T04:56:33;26.58;;;14.10;;
39410;SDS011;26579;43.238;23.124;2023-02-28T04:58:59;28.02;;;14.57;;
39410;SDS011;26579;43.238;23.124;2023-02-28T05:01:31;31.50;;;15.38;;
39410;SDS011;26579;43.238;23.124;2023-02-28T05:03:59;31.35;;;16.38;;
39410;SDS011;26579;43.238;23.124;2023-02-28T05:06:27;27.67;;;13.20;;
39410;SDS011;26579;43.238;23.124;2023-02-28T05:08:54;31.17;;;15.98;;
39410;SDS011;26579;43.238;23.124;2023-02-28T05:11:21;35.63;;;16.08;;
39410;SDS011;26579;43.238;23.124;2023-02-28T05:13:50;30.90;;;15.00;;
39410;SDS011;26579;43.238;23.124;2023-02-28T05:16:16;35.90;;;17.27;;
39410;SDS011;26579;43.238;23.124;2023-02-28T05:18:42;32.05;;;15.52;;
39410;SDS011;26579;43.238;23.124;2023-02-28T05:23:48;43.25;;;22.02;;
39410;SDS011;26579;43.238;23.124;2023-02-28T05:26:14;36.20;;;18.63;;
39410;SDS011;26579;43.238;23.124;2023-02-28T05:28:39;38.58;;;19.77;;
39410;SDS011;26579;43.238;23.124;2023-02-28T05:31:05;33.53;;;15.50;;
39410;SDS011;26579;43.238;23.124;2023-02-28T05:33:31;35.08;;;17.67;;
39410;SDS011;26579;43.238;23.124;2023-02-28T05:35:56;34.72;;;17.63;;
39410;SDS011;26579;43.238;23.124;2023-02-28T05:38:22;33.53;;;15.70;;
39410;SDS011;26579;43.238;23.124;2023-02-28T05:40:48;32.83;;;16.17;;
39410;SDS011;26579;43.238;23.124;2023-02-28T05:43:13;36.63;;;18.40;;
39410;SDS011;26579;43.238;23.124;2023-02-28T05:45:39;39.13;;;18.70;;
39410;SDS011;26579;43.238;23.124;2023-02-28T05:48:05;33.67;;;17.13;;
39410;SDS011;26579;43.238;23.124;2023-02-28T05:50:31;34.58;;;16.83;;
39410;SDS011;26579;43.238;23.124;2023-02-28T05:52:56;36.72;;;17.45;;
39410;SDS011;26579;43.238;23.124;2023-02-28T05:55:22;32.35;;;16.50;;
39410;SDS011;26579;43.238;23.124;2023-02-28T05:57:48;46.72;;;22.73;;
39410;SDS011;26579;43.238;23.124;2023-02-28T06:00:13;43.35;;;21.75;;
39410;SDS011;26579;43.238;23.124;2023-02-28T06:02:39;38.28;;;18.95;;
39410;SDS011;26579;43.238;23.124;2023-02-28T06:05:05;42.65;;;20.40;;
39410;SDS011;26579;43.238;23.124;2023-02-28T06:07:37;44.75;;;23.23;;
39410;SDS011;26579;43.238;23.124;2023-02-28T06:10:03;49.80;;;23.15;;
39410;SDS011;26579;43.238;23.124;2023-02-28T06:12:29;44.70;;;21.85;;
39410;SDS011;26579;43.238;23.124;2023-02-28T06:14:55;50.17;;;22.88;;
39410;SDS011;26579;43.238;23.124;2023-02-28T06:17:21;45.33;;;20.58;;
39410;SDS011;26579;43.238;23.124;2023-02-28T06:19:46;46.15;;;20.50;;
39410;SDS011;26579;43.238;23.124;2023-02-28T06:22:12;55.10;;;19.48;;
39410;SDS011;26579;43.238;23.124;2023-02-28T06:24:37;45.15;;;22.30;;
39410;SDS011;26579;43.238;23.124;2023-02-28T06:27:03;52.60;;;22.73;;
39410;SDS011;26579;43.238;23.124;2023-02-28T06:29:29;42.50;;;20.15;;
39410;SDS011;26579;43.238;23.124;2023-02-28T06:31:54;35.50;;;18.77;;
39410;SDS011;26579;43.238;23.124;2023-02-28T06:34:20;35.15;;;18.05;;
39410;SDS011;26579;43.238;23.124;2023-02-28T06:36:46;29.50;;;15.05;;
39410;SDS011;26579;43.238;23.124;2023-02-28T06:39:12;35.17;;;13.75;;
39410;SDS011;26579;43.238;23.124;2023-02-28T06:41:38;28.52;;;13.95;;
39410;SDS011;26579;43.238;23.124;2023-02-28T06:44:13;40.33;;;18.52;;
39410;SDS011;26579;43.238;23.124;2023-02-28T06:46:40;37.85;;;17.63;;
39410;SDS011;26579;43.238;23.124;2023-02-28T06:49:07;28.77;;;12.88;;
39410;SDS011;26579;43.238;23.124;2023-02-28T06:51:33;25.50;;;13.52;;
39410;SDS011;26579;43.238;23.124;2023-02-28T06:53:59;31.55;;;13.57;;
39410;SDS011;26579;43.238;23.124;2023-02-28T06:56:24;69.78;;;16.63;;
39410;SDS011;26579;43.238;23.124;2023-02-28T06:58:50;32.83;;;16.15;;
39410;SDS011;26579;43.238;23.124;2023-02-28T07:01:16;29.55;;;16.13;;
39410;SDS011;26579;43.238;23.124;2023-02-28T07:03:42;30.27;;;15.57;;
39410;SDS011;26579;43.238;23.124;2023-02-28T07:06:08;29.40;;;14.55;;
39410;SDS011;26579;43.238;23.124;2023-02-28T07:08:34;33.53;;;12.63;;
39410;SDS011;26579;43.238;23.124;2023-02-28T07:11:00;46.08;;;23.30;;
39410;SDS011;26579;43.238;23.124;2023-02-28T07:13:26;66.53;;;16.17;;
39410;SDS011;26579;43.238;23.124;2023-02-28T07:15:56;33.08;;;17.48;;
39410;SDS011;26579;43.238;23.124;2023-02-28T07:18:23;35.53;;;17.38;;
39410;SDS011;26579;43.238;23.124;2023-02-28T07:20:49;36.78;;;13.52;;
39410;SDS011;26579;43.238;23.124;2023-02-28T07:23:15;33.53;;;14.27;;
39410;SDS011;26579;43.238;23.124;2023-02-28T07:25:41;27.15;;;11.73;;
39410;SDS011;26579;43.238;23.124;2023-02-28T07:28:07;30.83;;;11.45;;
39410;SDS011;26579;43.238;23.124;2023-02-28T07:30:33;20.23;;;9.93;;
39410;SDS011;26579;43.238;23.124;2023-02-28T07:32:59;23.15;;;9.55;;
39410;SDS011;26579;43.238;23.124;2023-02-28T07:35:24;22.98;;;10.75;;
39410;SDS011;26579;43.238;23.124;2023-02-28T07:37:50;19.60;;;10.43;;
39410;SDS011;26579;43.238;23.124;2023-02-28T07:40:16;25.42;;;12.73;;
39410;SDS011;26579;43.238;23.124;2023-02-28T07:42:42;26.08;;;13.02;;
39410;SDS011;26579;43.238;23.124;2023-02-28T07:45:08;21.67;;;11.40;;
39410;SDS011;26579;43.238;23.124;2023-02-28T07:47:35;35.40;;;16.63;;
39410;SDS011;26579;43.238;23.124;2023-02-28T07:50:00;20.48;;;11.93;;
39410;SDS011;26579;43.238;23.124;2023-02-28T07:52:26;18.17;;;9.60;;
39410;SDS011;26579;43.238;23.124;2023-02-28T07:54:52;15.77;;;8.50;;
39410;SDS011;26579;43.238;23.124;2023-02-28T07:57:17;13.82;;;7.57;;
39410;SDS011;26579;43.238;23.124;2023-02-28T07:59:43;15.43;;;7.43;;
39410;SDS011;26579;43.238;23.124;2023-02-28T08:02:16;13.80;;;7.22;;
39410;SDS011;26579;43.238;23.124;2023-02-28T08:04:43;18.48;;;9.30;;
39410;SDS011;26579;43.238;23.124;2023-02-28T08:07:09;16.15;;;8.57;;
39410;SDS011;26579;43.238;23.124;2023-02-28T08:09:35;11.52;;;7.00;;
39410;SDS011;26579;43.238;23.124;2023-02-28T08:12:00;12.45;;;6.72;;
39410;SDS011;26579;43.238;23.124;2023-02-28T08:14:26;10.88;;;7.07;;
39410;SDS011;26579;43.238;23.124;2023-02-28T08:16:52;13.45;;;7.38;;
39410;SDS011;26579;43.238;23.124;2023-02-28T08:19:17;24.30;;;8.00;;
39410;SDS011;26579;43.238;23.124;2023-02-28T08:21:43;15.40;;;8.35;;
39410;SDS011;26579;43.238;23.124;2023-02-28T08:24:09;17.15;;;8.18;;
39410;SDS011;26579;43.238;23.124;2023-02-28T08:26:34;14.77;;;7.45;;
39410;SDS011;26579;43.238;23.124;2023-02-28T08:29:00;13.35;;;8.00;;
39410;SDS011;26579;43.238;23.124;2023-02-28T08:31:26;14.13;;;7.50;;
39410;SDS011;26579;43.238;23.124;2023-02-28T08:33:51;13.30;;;7.07;;
39410;SDS011;26579;43.238;23.124;2023-02-28T08:36:17;14.30;;;8.10;;
39410;SDS011;26579;43.238;23.124;2023-02-28T08:38:43;9.77;;;5.20;;
39410;SDS011;26579;43.238;23.124;2023-02-28T08:41:10;14.30;;;7.47;;
39410;SDS011;26579;43.238;23.124;2023-02-28T08:43:37;19.35;;;10.30;;
39410;SDS011;26579;43.238;23.124;2023-02-28T08:46:03;15.15;;;8.25;;
39410;SDS011;26579;43.238;23.124;2023-02-28T08:48:30;14.85;;;8.10;;
39410;SDS011;26579;43.238;23.124;2023-02-28T08:51:01;14.95;;;8.68;;
39410;SDS011;26579;43.238;23.124;2023-02-28T08:53:29;16.05;;;8.35;;
39410;SDS011;26579;43.238;23.124;2023-02-28T08:55:56;18.38;;;11.13;;
39410;SDS011;26579;43.238;23.124;2023-02-28T08:58:26;9.98;;;6.97;;
39410;SDS011;26579;43.238;23.124;2023-02-28T09:00:53;11.88;;;7.75;;
39410;SDS011;26579;43.238;23.124;2023-02-28T09:03:19;18.38;;;9.90;;
39410;SDS011;26579;43.238;23.124;2023-02-28T09:05:53;33.33;;;17.70;;
39410;SDS011;26579;43.238;23.124;2023-02-28T09:08:19;12.27;;;7.93;;
39410;SDS011;26579;43.238;23.124;2023-02-28T09:10:45;11.68;;;7.38;;
39410;SDS011;26579;43.238;23.124;2023-02-28T09:13:11;11.68;;;7.00;;
39410;SDS011;26579;43.238;23.124;2023-02-28T09:15:37;13.70;;;8.13;;
39410;SDS011;26579;43.238;23.124;2023-02-28T09:18:03;13.65;;;7.85;;
39410;SDS011;26579;43.238;23.124;2023-02-28T09:20:29;12.82;;;7.40;;
39410;SDS011;26579;43.238;23.124;2023-02-28T09:22:55;14.85;;;8.75;;
39410;SDS011;26579;43.238;23.124;2023-02-28T09:25:20;20.70;;;12.95;;
39410;SDS011;26579;43.238;23.124;2023-02-28T09:27:46;18.52;;;10.30;;
39410;SDS011;26579;43.238;23.124;2023-02-28T09:30:12;17.17;;;9.60;;
39410;SDS011;26579;43.238;23.124;2023-02-28T09:32:38;17.50;;;9.82;;
39410;SDS011;26579;43.238;23.124;2023-02-28T09:35:04;15.65;;;9.25;;
39410;SDS011;26579;43.238;23.124;2023-02-28T09:37:31;16.80;;;9.23;;
39410;SDS011;26579;43.238;23.124;2023-02-28T09:39:57;12.15;;;7.53;;
39410;SDS011;26579;43.238;23.124;2023-02-28T09:42:29;13.52;;;8.30;;
39410;SDS011;26579;43.238;23.124;2023-02-28T09:44:58;40.63;;;21.33;;
39410;SDS011;26579;43.238;23.124;2023-02-28T09:47:31;15.38;;;8.80;;
39410;SDS011;26579;43.238;23.124;2023-02-28T09:50:48;17.90;;;8.02;;
39410;SDS011;26579;43.238;23.124;2023-02-28T09:53:19;20.35;;;11.70;;
39410;SDS011;26579;43.238;23.124;2023-02-28T09:55:51;17.17;;;10.80;;
39410;SDS011;26579;43.238;23.124;2023-02-28T09:58:23;12.27;;;7.30;;
39410;SDS011;26579;43.238;23.124;2023-02-28T10:01:02;16.83;;;8.00;;
39410;SDS011;26579;43.238;23.124;2023-02-28T10:03:43;12.57;;;7.15;;
39410;SDS011;26579;43.238;23.124;2023-02-28T10:06:16;11.35;;;6.72;;
39410;SDS011;26579;43.238;23.124;2023-02-28T10:11:33;10.65;;;6.10;;
39410;SDS011;26579;43.238;23.124;2023-02-28T10:14:02;10.35;;;5.40;;
39410;SDS011;26579;43.238;23.124;2023-02-28T10:19:35;14.30;;;7.78;;
39410;SDS011;26579;43.238;23.124;2023-02-28T10:24:49;20.98;;;10.02;;
39410;SDS011;26579;43.238;23.124;2023-02-28T10:27:20;17.08;;;9.80;;
39410;SDS011;26579;43.238;23.124;2023-02-28T10:29:52;11.60;;;6.88;;
39410;SDS011;26579;43.238;23.124;2023-02-28T10:32:23;17.08;;;9.57;;
39410;SDS011;26579;43.238;23.124;2023-02-28T10:35:14;21.88;;;12.68;;
39410;SDS011;26579;43.238;23.124;2023-02-28T10:37:43;31.92;;;14.98;;
39410;SDS011;26579;43.238;23.124;2023-02-28T10:45:31;18.23;;;9.90;;
39410;SDS011;26579;43.238;23.124;2023-02-28T10:58:50;10.50;;;5.65;;
39410;SDS011;26579;43.238;23.124;2023-02-28T11:01:35;27.92;;;14.60;;
39410;SDS011;26579;43.238;23.124;2023-02-28T11:04:51;14.57;;;7.68;;
39410;SDS011;26579;43.238;23.124;2023-02-28T11:09:35;17.45;;;8.80;;
39410;SDS011;26579;43.238;23.124;2023-02-28T11:12:05;15.63;;;8.00;;
39410;SDS011;26579;43.238;23.124;2023-02-28T11:14:47;15.18;;;8.07;;
39410;SDS011;26579;43.238;23.124;2023-02-28T11:17:20;18.23;;;10.48;;
39410;SDS011;26579;43.238;23.124;2023-02-28T11:19:49;17.70;;;10.55;;
39410;SDS011;26579;43.238;23.124;2023-02-28T11:22:22;10.82;;;6.93;;
39410;SDS011;26579;43.238;23.124;2023-02-28T11:24:52;12.35;;;7.40;;
39410;SDS011;26579;43.238;23.124;2023-02-28T11:29:55;11.98;;;7.50;;
39410;SDS011;26579;43.238;23.124;2023-02-28T11:32:22;13.30;;;8.50;;
39410;SDS011;26579;43.238;23.124;2023-02-28T11:35:14;13.60;;;8.55;;
39410;SDS011;26579;43.238;23.124;2023-02-28T11:37:46;7.22;;;5.07;;
39410;SDS011;26579;43.238;23.124;2023-02-28T11:40:15;13.07;;;8.80;;
39410;SDS011;26579;43.238;23.124;2023-02-28T11:42:54;10.48;;;8.00;;
39410;SDS011;26579;43.238;23.124;2023-02-28T11:48:41;11.33;;;7.07;;
39410;SDS011;26579;43.238;23.124;2023-02-28T11:56:38;15.25;;;7.85;;
39410;SDS011;26579;43.238;23.124;2023-02-28T12:02:03;17.63;;;9.95;;
39410;SDS011;26579;43.238;23.124;2023-02-28T12:10:27;9.23;;;4.78;;
39410;SDS011;26579;43.238;23.124;2023-02-28T12:21:11;8.15;;;4.85;;
39410;SDS011;26579;43.238;23.124;2023-02-28T12:24:08;8.55;;;5.10;;
39410;SDS011;26579;43.238;23.124;2023-02-28T12:26:59;6.90;;;4.30;;
39410;SDS011;26579;43.238;23.124;2023-02-28T12:29:28;6.10;;;3.53;;
39410;SDS011;26579;43.238;23.124;2023-02-28T12:32:13;10.55;;;6.15;;
39410;SDS011;26579;43.238;23.124;2023-02-28T12:34:51;12.65;;;6.18;;
39410;SDS011;26579;43.238;23.124;2023-02-28T12:37:22;9.68;;;5.28;;
39410;SDS011;26579;43.238;23.124;2023-02-28T12:39:50;9.38;;;5.28;;
39410;SDS011;26579;43.238;23.124;2023-02-28T12:42:27;8.73;;;5.03;;
39410;SDS011;26579;43.238;23.124;2023-02-28T12:44:59;7.47;;;4.25;;
39410;SDS011;26579;43.238;23.124;2023-02-28T12:47:29;7.78;;;5.15;;
39410;SDS011;26579;43.238;23.124;2023-02-28T12:50:07;14.23;;;8.25;;
39410;SDS011;26579;43.238;23.124;2023-02-28T13:09:41;7.07;;;4.22;;
39410;SDS011;26579;43.238;23.124;2023-02-28T13:12:18;5.07;;;3.35;;
39410;SDS011;26579;43.238;23.124;2023-02-28T13:14:43;8.57;;;6.05;;
39410;SDS011;26579;43.238;23.124;2023-02-28T13:22:20;6.95;;;4.10;;
39410;SDS011;26579;43.238;23.124;2023-02-28T13:28:11;7.90;;;4.85;;
39410;SDS011;26579;43.238;23.124;2023-02-28T13:33:29;8.57;;;5.15;;
39410;SDS011;26579;43.238;23.124;2023-02-28T13:38:41;15.70;;;8.68;;
39410;SDS011;26579;43.238;23.124;2023-02-28T13:44:11;5.47;;;3.65;;
39410;SDS011;26579;43.238;23.124;2023-02-28T13:49:28;7.13;;;4.53;;
39410;SDS011;26579;43.238;23.124;2023-02-28T13:57:35;6.85;;;4.25;;
39410;SDS011;26579;43.238;23.124;2023-02-28T14:11:41;6.15;;;3.75;;
39410;SDS011;26579;43.238;23.124;2023-02-28T14:14:09;4.82;;;2.70;;
39410;SDS011;26579;43.238;23.124;2023-02-28T14:16:55;47.67;;;23.73;;
39410;SDS011;26579;43.238;23.124;2023-02-28T14:24:47;8.35;;;4.05;;
39410;SDS011;26579;43.238;23.124;2023-02-28T14:27:52;15.13;;;7.13;;
39410;SDS011;26579;43.238;23.124;2023-02-28T14:30:12;6.90;;;4.53;;
39410;SDS011;26579;43.238;23.124;2023-02-28T14:33:09;7.32;;;3.30;;
39410;SDS011;26579;43.238;23.124;2023-02-28T14:35:50;7.75;;;4.47;;
39410;SDS011;26579;43.238;23.124;2023-02-28T14:38:40;9.20;;;5.40;;
39410;SDS011;26579;43.238;23.124;2023-02-28T14:41:18;10.18;;;5.68;;
39410;SDS011;26579;43.238;23.124;2023-02-28T14:43:48;7.85;;;5.13;;
39410;SDS011;26579;43.238;23.124;2023-02-28T14:46:15;8.77;;;5.82;;
39410;SDS011;26579;43.238;23.124;2023-02-28T14:48:45;12.13;;;7.45;;
39410;SDS011;26579;43.238;23.124;2023-02-28T14:51:17;13.15;;;7.38;;
39410;SDS011;26579;43.238;23.124;2023-02-28T14:53:44;9.27;;;4.95;;
39410;SDS011;26579;43.238;23.124;2023-02-28T14:59:01;8.63;;;3.75;;
39410;SDS011;26579;43.238;23.124;2023-02-28T15:01:27;7.45;;;3.95;;
39410;SDS011;26579;43.238;23.124;2023-02-28T15:03:57;14.63;;;9.55;;
39410;SDS011;26579;43.238;23.124;2023-02-28T15:09:07;10.18;;;6.93;;
39410;SDS011;26579;43.238;23.124;2023-02-28T15:11:35;14.82;;;10.15;;
39410;SDS011;26579;43.238;23.124;2023-02-28T15:14:04;31.02;;;25.52;;
39410;SDS011;26579;43.238;23.124;2023-02-28T15:16:39;11.15;;;8.68;;
39410;SDS011;26579;43.238;23.124;2023-02-28T15:19:11;8.63;;;5.43;;
39410;SDS011;26579;43.238;23.124;2023-02-28T15:21:51;9.30;;;4.55;;
39410;SDS011;26579;43.238;23.124;2023-02-28T15:24:40;8.95;;;4.97;;
39410;SDS011;26579;43.238;23.124;2023-02-28T15:27:32;8.02;;;4.93;;
39410;SDS011;26579;43.238;23.124;2023-02-28T15:30:12;8.95;;;4.57;;
39410;SDS011;26579;43.238;23.124;2023-02-28T15:32:42;7.25;;;4.45;;
39410;SDS011;26579;43.238;23.124;2023-02-28T15:35:18;9.70;;;5.88;;
39410;SDS011;26579;43.238;23.124;2023-02-28T15:37:54;10.20;;;4.82;;
39410;SDS011;26579;43.238;23.124;2023-02-28T15:40:26;7.13;;;4.32;;
39410;SDS011;26579;43.238;23.124;2023-02-28T15:43:04;14.18;;;9.00;;
39410;SDS011;26579;43.238;23.124;2023-02-28T15:48:34;11.07;;;6.40;;
39410;SDS011;26579;43.238;23.124;2023-02-28T15:51:09;9.13;;;5.50;;
39410;SDS011;26579;43.238;23.124;2023-02-28T15:53:50;7.20;;;4.10;;
39410;SDS011;26579;43.238;23.124;2023-02-28T15:56:22;20.40;;;10.05;;
39410;SDS011;26579;43.238;23.124;2023-02-28T15:58:50;28.88;;;16.92;;
39410;SDS011;26579;43.238;23.124;2023-02-28T16:01:24;14.20;;;8.35;;
39410;SDS011;26579;43.238;23.124;2023-02-28T16:03:53;11.98;;;7.22;;
39410;SDS011;26579;43.238;23.124;2023-02-28T16:08:46;14.77;;;7.90;;
39410;SDS011;26579;43.238;23.124;2023-02-28T16:11:12;8.32;;;4.63;;
39410;SDS011;26579;43.238;23.124;2023-02-28T16:13:38;11.13;;;5.25;;
39410;SDS011;26579;43.238;23.124;2023-02-28T16:16:03;8.07;;;4.05;;
39410;SDS011;26579;43.238;23.124;2023-02-28T16:18:29;8.55;;;4.45;;
39410;SDS011;26579;43.238;23.124;2023-02-28T16:20:55;8.68;;;4.90;;
39410;SDS011;26579;43.238;23.124;2023-02-28T16:23:21;8.02;;;4.65;;
39410;SDS011;26579;43.238;23.124;2023-02-28T16:25:46;9.45;;;6.20;;
39410;SDS011;26579;43.238;23.124;2023-02-28T16:28:17;9.65;;;6.15;;
39410;SDS011;26579;43.238;23.124;2023-02-28T16:30:43;12.60;;;7.10;;
39410;SDS011;26579;43.238;23.124;2023-02-28T16:33:09;7.88;;;4.57;;
39410;SDS011;26579;43.238;23.124;2023-02-28T16:35:35;6.38;;;3.45;;
39410;SDS011;26579;43.238;23.124;2023-02-28T16:38:00;6.82;;;4.10;;
39410;SDS011;26579;43.238;23.124;2023-02-28T16:40:26;4.93;;;2.83;;
39410;SDS011;26579;43.238;23.124;2023-02-28T16:42:53;7.15;;;4.15;;
39410;SDS011;26579;43.238;23.124;2023-02-28T16:45:24;7.07;;;3.60;;
39410;SDS011;26579;43.238;23.124;2023-02-28T16:47:52;6.65;;;4.05;;
39410;SDS011;26579;43.238;23.124;2023-02-28T16:50:23;8.20;;;5.28;;
39410;SDS011;26579;43.238;23.124;2023-02-28T16:52:50;10.52;;;5.40;;
39410;SDS011;26579;43.238;23.124;2023-02-28T16:55:16;10.15;;;6.07;;
39410;SDS011;26579;43.238;23.124;2023-02-28T16:57:42;15.82;;;10.00;;
39410;SDS011;26579;43.238;23.124;2023-02-28T17:00:11;10.27;;;5.65;;
39410;SDS011;26579;43.238;23.124;2023-02-28T17:02:38;11.05;;;7.32;;
39410;SDS011;26579;43.238;23.124;2023-02-28T17:05:04;11.40;;;6.88;;
39410;SDS011;26579;43.238;23.124;2023-02-28T17:07:30;7.05;;;4.65;;
39410;SDS011;26579;43.238;23.124;2023-02-28T17:09:56;10.57;;;6.05;;
39410;SDS011;26579;43.238;23.124;2023-02-28T17:12:22;7.38;;;5.15;;
39410;SDS011;26579;43.238;23.124;2023-02-28T17:14:47;8.18;;;4.68;;
39410;SDS011;26579;43.238;23.124;2023-02-28T17:17:15;5.55;;;3.55;;